Flight Track Log - Related Links

Times and Time Zones

All times are in EDT time to prevent confusion due to time zone crossing. See the SWA34 flight status page for this flight to view local times or setup timezone preferences in your user account.

Time Position Orientation Groundspeed Altitude Reporting Facility
EDT Latitude Longitude Course Direction KTS MPH feet Rate Location/Type
Fri 05:29:19 PM 32.8000 -96.7833 128° Southeast 212 244 4,100  Level Dallas / Fort Worth TRACON
Fri 05:30:19 PM 32.7833 -96.7000 103° East 293 337 5,900 2,053 Climbing Dallas / Fort Worth TRACON
Fri 05:31:13 PM 32.8500 -96.6833 12° North 299 344 8,000 1,759 Climbing Dallas / Fort Worth TRACON
Fri 05:33:30 PM 33.0383 -96.7692 339° North 317 365 11,500 1,523 Climbing Fort Worth Center
Fri 05:34:30 PM 33.1389 -96.8156 339° North 356 410 13,000 1,800 Climbing Fort Worth Center
Fri 05:35:30 PM 33.2350 -96.8597 339° North 395 455 15,100 2,250 Climbing Fort Worth Center
Fri 05:36:30 PM 33.3542 -96.9161 338° Northwest 417 480 17,500 2,926 Climbing Fort Worth Center
Fri 05:37:31 PM 33.4692 -96.9503 346° North 423 487 21,000 2,600 Climbing Fort Worth Center
Fri 05:38:30 PM 33.5881 -96.9097 16° North 429 494 22,700 1,714 Climbing Fort Worth Center
Fri 05:39:30 PM 33.6983 -96.8667 18° North 445 512 24,400 1,736 Climbing Fort Worth Center
Fri 05:40:31 PM 33.8214 -96.8183 18° North 466 536 26,200 1,750 Climbing Fort Worth Center
Fri 05:41:30 PM 33.9483 -96.7675 18° North 466 536 27,900 1,563 Climbing Fort Worth Center
Fri 05:42:30 PM 34.0733 -96.7189 18° North 461 531 29,300 1,250 Climbing Fort Worth Center
Fri 05:43:30 PM 34.1942 -96.6728 18° North 461 531 30,400 1,400 Climbing Fort Worth Center
Fri 05:44:30 PM 34.3211 -96.6214 18° North 466 536 32,100 1,300 Climbing Fort Worth Center
Fri 05:45:30 PM 34.4458 -96.5675 20° North 466 536 33,000 446 Climbing Fort Worth Center
Fri 05:46:31 PM 34.5686 -96.5133 20° North 466 536 33,000  Level Fort Worth Center
Fri 05:47:30 PM 34.7100 -96.4511 20° North 474 545 33,000 -958 Level Fort Worth Center
Fri 05:48:30 PM 34.8347 -96.3942 21° North 474 545 31,100 -2,380 Descending Fort Worth Center
Fri 05:49:31 PM 34.9594 -96.3419 19° North 474 545 28,200 -3,250 Descending Fort Worth Center
Fri 05:50:30 PM 35.0864 -96.2844 20° North 474 545 24,600 -3,117 Descending Fort Worth Center
Fri 05:52:30 PM 35.3356 -96.1742 20° North 479 551 18,900 -2,467 Descending Fort Worth Center
Fri 05:55:00 PM 35.6028 -96.0536 20° North 431 496 13,500 -2,235 Descending Kansas City Center
Fri 05:55:46 PM 35.7022 -96.0119 19° North 408 470 11,600 -2,164 Descending Kansas City Center
Fri 05:56:01 PM 35.7097 -96.0072 27° Northeast 415 478 11,300 -1,574 Descending Kansas City Center
Fri 05:56:47 PM 35.8064 -96.0014 North 364 419 10,000 -1,313 Descending Kansas City Center
Fri 05:57:05 PM 35.8131 -96.0006 North 379 436 9,900 -381 Descending Kansas City Center
Fri 05:57:50 PM 35.8944 -96.0031 359° North 296 341 9,600 -900 Descending Kansas City Center
Fri 05:58:05 PM 35.9186 -96.0028 North 328 377 9,000 -1,855 Descending Kansas City Center
Fri 05:58:45 PM 35.9722 -96.0033 360° North 292 336 7,900 -1,781 Descending Kansas City Center
Fri 05:59:09 PM 36.0036 -96.0025 North 309 356 7,100 -1,655 Descending Kansas City Center
Fri 05:59:43 PM 36.0583 -96.0053 358° North 313 360 6,300 -1,475 Descending Kansas City Center
Fri 06:00:10 PM 36.0906 -96.0017 North 309 356 5,600 -1,433 Descending Kansas City Center
Fri 06:00:50 PM 36.1514 -95.9881 10° North 311 358 4,700 -1,377 Descending Kansas City Center
Fri 06:01:11 PM 36.1764 -95.9828 10° North 311 358 4,200 -900 Descending Kansas City Center
Fri 06:01:50 PM 36.2342 -95.9747 North 292 336 3,800 -750 Descending Kansas City Center
Fri 06:02:15 PM 36.2575 -95.9719 North 301 346 3,400 -984 Descending Kansas City Center
Fri 06:02:51 PM 36.3114 -95.9700 North 264 304 2,800 -1,000 Descending Kansas City Center
Fri 06:03:15 PM 36.3328 -95.9683 North 284 327 2,400 -200 Descending Kansas City Center
Fri 06:03:51 PM 36.3753 -95.9592 10° North 227 261 2,600  Climbing Kansas City Center
Fri 06:04:18 PM 36.3783 -95.9406 78° East 240 276 2,400  Descending Kansas City Center
Fri 06:04:52 PM 36.3703 -95.9000 104° East 162 186 2,600  Climbing Kansas City Center
Fri 06:05:19 PM 36.3483 -95.8919 164° South 195 224 2,400  Descending Kansas City Center
Fri 06:05:55 PM 36.3192 -95.8911 179° South 177 204 2,600 -95 Climbing Kansas City Center
Fri 06:06:22 PM 36.2983 -95.8922 182° South 186 214 2,300 -600 Descending Kansas City Center
Fri 06:06:55 PM 36.2733 -95.8947 185° South 160 184 2,000 -689 Descending Kansas City Center
Fri 06:07:23 PM 36.2569 -95.8956 182° South 168 193 1,600 -689 Descending Kansas City Center
Fri 06:07:56 PM 36.2381 -95.8967 183° South 123 142 1,300 -667 Descending Kansas City Center
Fri 06:08:26 PM 36.2225 -95.8978 183° South 143 165 900 -800 Descending Kansas City Center

Login

Don't have an account? Register now (free) for customized features, flight alerts, and more!